Time;durP1;ratioP1;P1;durP2;ratioP2;P2;SDS_P1;SDS_P2;PMS_P1;PMS_P2;Temp;Humidity;BMP_temperature;BMP_pressure;BME280_temperature;BME280_humidity;BME280_pressure;Samples;Min_cycle;Max_cycle;Signal;HPM_P1;HPM_P2
2022/12/05 00:01:22;;;;;;;21.08;11.60;;;5.00;99.90;;;;;;5043992;28;20036;-75
2022/12/05 00:03:50;;;;;;;20.40;12.52;;;5.10;99.90;;;;;;5042807;28;20049;-81
2022/12/05 00:06:16;;;;;;;15.75;12.52;;;5.00;99.90;;;;;;5044752;28;20455;-76
2022/12/05 00:08:42;;;;;;;16.38;10.00;;;5.00;99.90;;;;;;5042868;28;20044;-78
2022/12/05 00:11:20;;;;;;;15.93;11.18;;;5.00;99.90;;;;;;5044363;28;20507;-82
2022/12/05 00:13:47;;;;;;;21.83;11.73;;;5.00;99.90;;;;;;5043279;28;20103;-77
2022/12/05 00:16:15;;;;;;;21.30;13.65;;;5.10;99.90;;;;;;5043588;28;20094;-77
2022/12/05 00:18:41;;;;;;;19.80;10.88;;;5.00;99.90;;;;;;5041852;28;20033;-82
2022/12/05 00:21:11;;;;;;;17.95;11.48;;;5.10;99.90;;;;;;5044130;28;20033;-82
2022/12/05 00:23:36;;;;;;;16.52;11.52;;;5.10;99.90;;;;;;5044137;28;20124;-84
2022/12/05 00:26:05;;;;;;;15.25;11.57;;;5.10;99.90;;;;;;5043351;28;20132;-81
2022/12/05 00:28:32;;;;;;;22.98;13.10;;;5.10;99.90;;;;;;5026427;28;20049;-79
2022/12/05 00:31:06;;;;;;;17.15;11.25;;;5.10;99.90;;;;;;5043555;28;20041;-79
2022/12/05 00:33:31;;;;;;;16.92;11.32;;;5.10;99.90;;;;;;5042947;28;20094;-79
2022/12/05 00:36:06;;;;;;;17.17;11.75;;;5.10;99.90;;;;;;5042122;28;20063;-80
2022/12/05 00:38:31;;;;;;;22.73;12.52;;;5.10;99.90;;;;;;5043666;28;20098;-79
2022/12/05 00:41:05;;;;;;;16.98;10.18;;;5.10;99.90;;;;;;5042165;28;20383;-74
2022/12/05 00:43:31;;;;;;;19.90;12.77;;;5.10;99.90;;;;;;5043980;28;20491;-83
2022/12/05 00:46:19;;;;;;;18.25;11.32;;;5.10;99.90;;;;;;5043200;28;20064;-74
2022/12/05 00:48:46;;;;;;;17.00;10.73;;;5.10;99.90;;;;;;5042055;28;20767;-80
2022/12/05 00:51:21;;;;;;;14.90;9.10;;;5.10;99.90;;;;;;5043252;28;20037;-83
2022/12/05 00:53:48;;;;;;;14.63;9.80;;;5.10;99.90;;;;;;5043223;28;20120;-84
2022/12/05 00:56:17;;;;;;;11.80;9.63;;;5.10;99.90;;;;;;5043593;28;20045;-79
2022/12/05 00:58:42;;;;;;;16.05;11.02;;;5.10;99.90;;;;;;5025882;28;20091;-77
2022/12/05 01:01:12;;;;;;;15.77;10.18;;;5.10;99.90;;;;;;5041925;28;20049;-83
2022/12/05 01:03:38;;;;;;;14.80;10.95;;;5.20;99.90;;;;;;5041844;28;20040;-80
2022/12/05 01:06:04;;;;;;;16.02;11.63;;;5.20;99.90;;;;;;5042165;28;20380;-80
2022/12/05 01:08:31;;;;;;;20.27;11.73;;;5.20;99.90;;;;;;5042950;28;20033;-82
2022/12/05 01:10:57;;;;;;;16.83;11.07;;;5.20;99.90;;;;;;5042774;28;20522;-79
2022/12/05 01:13:27;;;;;;;20.52;11.35;;;5.20;99.90;;;;;;5025712;28;20521;-83
2022/12/05 01:15:53;;;;;;;17.52;12.68;;;5.20;99.90;;;;;;5041506;28;20077;-84
2022/12/05 01:18:20;;;;;;;18.05;10.52;;;5.20;99.90;;;;;;5042427;28;20399;-81
2022/12/05 01:20:46;;;;;;;17.98;10.68;;;5.30;99.90;;;;;;5042069;28;20044;-82
2022/12/05 01:23:13;;;;;;;18.02;10.77;;;5.20;99.90;;;;;;5041814;28;20036;-77
2022/12/05 01:25:40;;;;;;;22.90;12.02;;;5.30;99.90;;;;;;5042107;28;20045;-84
2022/12/05 01:28:06;;;;;;;21.85;9.25;;;5.30;99.90;;;;;;5042714;28;20047;-83
2022/12/05 01:30:35;;;;;;;20.15;11.75;;;5.30;99.90;;;;;;5043068;28;20079;-80
2022/12/05 01:33:01;;;;;;;18.95;11.18;;;5.30;99.90;;;;;;5042259;28;20120;-83
2022/12/05 01:35:29;;;;;;;21.50;12.98;;;5.30;99.90;;;;;;5075372;28;20369;-77
2022/12/05 01:37:55;;;;;;;16.77;10.13;;;5.30;99.90;;;;;;5042884;28;20049;-84
2022/12/05 01:40:20;;;;;;;21.25;9.98;;;5.30;99.90;;;;;;5075018;28;20044;-81
2022/12/05 01:42:46;;;;;;;19.00;11.32;;;5.30;99.90;;;;;;5042111;28;20041;-82
2022/12/05 01:45:16;;;;;;;14.30;9.77;;;5.30;99.90;;;;;;5042630;28;20051;-84
2022/12/05 01:47:42;;;;;;;18.27;12.27;;;5.30;99.90;;;;;;5041009;28;20084;-79
2022/12/05 01:50:08;;;;;;;18.40;9.52;;;5.40;99.90;;;;;;5041037;28;20084;-75
2022/12/05 01:52:35;;;;;;;20.13;10.40;;;5.40;99.90;;;;;;5041408;28;20040;-81
2022/12/05 01:55:07;;;;;;;18.67;9.65;;;5.40;99.90;;;;;;5042954;28;20055;-80
2022/12/05 01:57:33;;;;;;;17.98;11.32;;;5.40;99.90;;;;;;5025309;28;20098;-85
2022/12/05 02:00:04;;;;;;;15.15;10.15;;;5.40;99.90;;;;;;5042471;28;20488;-81
2022/12/05 02:02:31;;;;;;;10.57;8.10;;;5.40;99.90;;;;;;5041566;28;20033;-80
2022/12/05 02:05:07;;;;;;;15.80;9.32;;;5.40;99.90;;;;;;5042762;28;20288;-83
2022/12/05 02:07:36;;;;;;;19.13;11.05;;;5.40;99.90;;;;;;5047245;28;20452;-80
2022/12/05 02:10:02;;;;;;;14.43;9.38;;;5.40;99.90;;;;;;5045007;28;20083;-84
2022/12/05 02:12:28;;;;;;;14.40;9.35;;;5.40;99.90;;;;;;5046391;28;20127;-78
2022/12/05 02:14:59;;;;;;;17.20;9.43;;;5.40;99.90;;;;;;5046421;28;20033;-85
2022/12/05 02:17:58;;;;;;;14.75;10.88;;;5.50;99.90;;;;;;5045722;28;20106;-84
2022/12/05 02:20:45;;;;;;;25.23;11.02;;;5.50;99.90;;;;;;5045496;28;20096;-76
2022/12/05 02:23:18;;;;;;;13.70;8.65;;;5.50;99.90;;;;;;5046455;28;20045;-80
2022/12/05 02:26:18;;;;;;;12.93;7.22;;;5.50;99.90;;;;;;5045949;28;21818;-81
2022/12/05 02:28:47;;;;;;;12.85;5.93;;;5.50;99.90;;;;;;5029114;28;20078;-74
2022/12/05 02:31:23;;;;;;;11.98;7.82;;;5.50;99.90;;;;;;5045080;28;20037;-78
2022/12/05 02:34:11;;;;;;;14.75;6.95;;;5.50;99.90;;;;;;5045425;28;20037;-83
2022/12/05 02:37:29;;;;;;;15.10;8.13;;;5.50;99.90;;;;;;5044435;28;20049;-74
2022/12/05 02:40:10;;;;;;;11.13;6.00;;;5.50;99.90;;;;;;4999316;28;20038;-84
2022/12/05 02:42:44;;;;;;;15.77;7.60;;;5.50;99.90;;;;;;5045826;28;20561;-79
2022/12/05 02:45:14;;;;;;;10.20;5.13;;;5.50;99.90;;;;;;5044991;28;20037;-79
2022/12/05 02:47:46;;;;;;;14.88;6.43;;;5.60;99.90;;;;;;5045522;28;20079;-80
2022/12/05 02:50:15;;;;;;;9.68;5.88;;;5.50;99.90;;;;;;5045493;28;20045;-82
2022/12/05 02:52:44;;;;;;;5.15;4.28;;;5.60;99.90;;;;;;5061206;28;20048;-84
2022/12/05 02:55:11;;;;;;;12.50;6.47;;;5.60;99.90;;;;;;5044000;28;20052;-83
2022/12/05 02:57:39;;;;;;;9.93;5.53;;;5.60;99.90;;;;;;5044151;28;20045;-79
2022/12/05 03:00:05;;;;;;;7.75;5.60;;;5.60;99.90;;;;;;5044327;28;20131;-84
2022/12/05 03:02:33;;;;;;;10.52;5.25;;;5.60;99.90;;;;;;5043046;28;20120;-82
2022/12/05 03:05:40;;;;;;;7.35;5.63;;;5.60;99.90;;;;;;5045339;28;20045;-80
2022/12/05 03:08:10;;;;;;;4.22;3.33;;;5.60;99.90;;;;;;5044087;28;20410;-79
2022/12/05 03:10:39;;;;;;;9.57;4.88;;;5.60;99.90;;;;;;5045812;28;20047;-80
2022/12/05 03:13:13;;;;;;;7.38;4.72;;;5.60;99.90;;;;;;5043692;28;20056;-83
2022/12/05 03:15:44;;;;;;;7.15;4.53;;;5.70;99.90;;;;;;5057306;28;20050;-79
2022/12/05 03:18:33;;;;;;;12.40;6.15;;;5.70;99.90;;;;;;5023026;28;20484;-80
2022/12/05 03:21:25;;;;;;;8.50;4.72;;;5.70;99.90;;;;;;5026162;28;20044;-77
2022/12/05 03:24:00;;;;;;;5.03;3.80;;;5.70;99.90;;;;;;5044866;28;20049;-79
2022/12/05 03:26:50;;;;;;;8.20;5.40;;;5.70;99.90;;;;;;5044563;28;20091;-83
2022/12/05 03:29:28;;;;;;;6.88;3.92;;;5.70;99.90;;;;;;5045260;28;20084;-81
2022/12/05 03:31:56;;;;;;;6.35;4.82;;;5.70;99.90;;;;;;5042514;28;20080;-83
2022/12/05 03:34:43;;;;;;;10.18;4.90;;;5.70;99.90;;;;;;5025224;28;20072;-76
2022/12/05 03:37:39;;;;;;;7.05;3.65;;;5.70;99.90;;;;;;5024662;28;20049;-79
2022/12/05 03:40:17;;;;;;;7.63;5.30;;;5.70;99.90;;;;;;5015270;28;20686;-83
2022/12/05 03:42:52;;;;;;;8.93;3.85;;;5.70;99.90;;;;;;5024285;28;20053;-84
2022/12/05 03:45:27;;;;;;;7.65;4.13;;;5.80;99.90;;;;;;5034884;28;20064;-83
2022/12/05 03:48:08;;;;;;;9.25;6.10;;;5.70;99.90;;;;;;5043725;28;20091;-79
2022/12/05 03:50:38;;;;;;;7.80;4.82;;;5.70;99.90;;;;;;5043585;28;20068;-80
2022/12/05 03:53:10;;;;;;;7.43;3.88;;;5.70;99.90;;;;;;5026627;28;20052;-78
2022/12/05 03:55:38;;;;;;;4.57;3.90;;;5.70;99.90;;;;;;5043008;28;20491;-77
2022/12/05 03:58:21;;;;;;;5.05;3.90;;;5.70;99.90;;;;;;5042986;28;20086;-79
2022/12/05 04:00:49;;;;;;;10.10;6.72;;;5.70;99.90;;;;;;5043276;28;20763;-80
2022/12/05 04:03:50;;;;;;;8.77;4.40;;;5.70;99.90;;;;;;5044052;28;20048;-80
2022/12/05 04:06:22;;;;;;;6.15;5.10;;;5.80;99.90;;;;;;5076822;28;20051;-84
2022/12/05 04:08:57;;;;;;;10.30;4.55;;;5.80;99.90;;;;;;5044759;28;20045;-83
2022/12/05 04:11:26;;;;;;;7.40;4.35;;;5.80;99.90;;;;;;5042853;28;20060;-83
2022/12/05 04:14:11;;;;;;;8.27;3.20;;;5.80;99.90;;;;;;5042549;28;20561;-79
2022/12/05 04:22:21;;;;;;;15.43;5.80;;;5.80;99.90;;;;;;5042865;28;20556;-79
2022/12/05 04:27:50;;;;;;;8.38;4.78;;;5.80;99.90;;;;;;5043681;28;20106;-82
2022/12/05 04:30:25;;;;;;;13.73;5.80;;;5.80;99.90;;;;;;5043215;28;20060;-75
2022/12/05 04:32:59;;;;;;;14.30;6.25;;;5.80;99.90;;;;;;5041156;28;20536;-78
2022/12/05 04:35:30;;;;;;;4.90;4.45;;;5.80;99.90;;;;;;5043960;28;20053;-80
2022/12/05 04:38:03;;;;;;;8.40;5.00;;;5.80;99.90;;;;;;5041950;28;20064;-84
2022/12/05 04:40:37;;;;;;;9.13;6.25;;;5.80;99.90;;;;;;5044076;28;20102;-82
2022/12/05 04:43:06;;;;;;;5.57;5.03;;;5.80;99.90;;;;;;5076004;28;20053;-80
2022/12/05 04:45:34;;;;;;;9.68;4.85;;;5.80;99.90;;;;;;5076214;28;20056;-84
2022/12/05 04:48:06;;;;;;;5.97;4.38;;;5.80;99.90;;;;;;5042500;28;20605;-79
2022/12/05 04:50:33;;;;;;;;;;;5.80;99.90;;;;;;5042655;28;20053;-78
2022/12/05 04:53:01;;;;;;;9.90;4.82;;;5.80;99.90;;;;;;5043921;28;19921;-74
2022/12/05 04:55:29;;;;;;;7.47;5.97;;;5.80;99.90;;;;;;5043812;28;20041;-75
2022/12/05 04:58:09;;;;;;;15.55;6.13;;;5.80;99.90;;;;;;5043328;28;20049;-78
2022/12/05 05:00:49;;;;;;;8.18;4.70;;;5.80;99.90;;;;;;5043293;28;20049;-84
2022/12/05 05:03:18;;;;;;;12.88;4.93;;;5.80;99.90;;;;;;5026173;28;20144;-83
2022/12/05 05:05:48;;;;;;;15.68;5.32;;;5.80;99.90;;;;;;5043221;28;20068;-85
2022/12/05 05:08:27;;;;;;;8.40;6.07;;;5.80;99.90;;;;;;5042503;28;20067;-84
2022/12/05 05:11:25;;;;;;;5.00;3.97;;;5.80;99.90;;;;;;5043192;28;20142;-85
2022/12/05 05:13:51;;;;;;;6.15;5.60;;;5.80;99.90;;;;;;5043071;28;20118;-82
2022/12/05 05:16:32;;;;;;;9.25;5.72;;;5.90;99.90;;;;;;5042874;28;20052;-85
2022/12/05 05:18:58;;;;;;;6.38;4.45;;;5.80;99.90;;;;;;5041753;28;20127;-77
2022/12/05 05:21:32;;;;;;;8.40;4.93;;;5.80;99.90;;;;;;5042997;28;20112;-85
2022/12/05 05:23:58;;;;;;;17.20;5.95;;;5.80;99.90;;;;;;5041929;28;20507;-85
2022/12/05 05:26:25;;;;;;;11.20;6.70;;;5.80;99.90;;;;;;5041756;28;20041;-79
2022/12/05 05:28:51;;;;;;;11.43;5.88;;;5.80;99.90;;;;;;5043269;28;20040;-80
2022/12/05 05:31:19;;;;;;;13.65;6.30;;;5.80;99.90;;;;;;5042284;28;20556;-84
2022/12/05 05:33:48;;;;;;;11.15;6.38;;;5.80;99.90;;;;;;5041961;28;20071;-79
2022/12/05 05:36:14;;;;;;;8.70;5.47;;;5.80;99.90;;;;;;5042558;28;20124;-83
2022/12/05 05:38:44;;;;;;;7.28;6.10;;;5.80;99.90;;;;;;5041467;28;20756;-83
2022/12/05 05:41:16;;;;;;;10.15;5.72;;;5.80;99.90;;;;;;5045171;28;20523;-79
2022/12/05 05:43:42;;;;;;;7.72;6.88;;;5.90;99.90;;;;;;5046843;28;20040;-78
2022/12/05 05:46:09;;;;;;;12.40;5.57;;;5.90;99.90;;;;;;5044546;28;20060;-85
2022/12/05 05:48:35;;;;;;;6.90;4.53;;;5.90;99.90;;;;;;5046189;28;20053;-78
2022/12/05 05:51:02;;;;;;;7.47;6.43;;;5.90;99.90;;;;;;5046564;28;20715;-86
2022/12/05 05:53:27;;;;;;;8.45;5.43;;;5.90;99.90;;;;;;5045056;28;20191;-82
2022/12/05 05:55:53;;;;;;;10.35;7.75;;;5.90;99.90;;;;;;5046665;28;20120;-83
2022/12/05 05:58:19;;;;;;;9.88;6.05;;;5.90;99.90;;;;;;5046104;28;20045;-82
2022/12/05 06:00:45;;;;;;;9.63;4.63;;;5.90;99.90;;;;;;5041924;28;20037;-78
2022/12/05 06:03:10;;;;;;;7.25;4.38;;;5.90;99.90;;;;;;5045775;28;20072;-84
2022/12/05 06:05:36;;;;;;;9.90;5.78;;;5.90;99.90;;;;;;5044080;28;20056;-80
2022/12/05 06:08:03;;;;;;;9.55;4.88;;;5.90;99.90;;;;;;5044881;28;20401;-84
2022/12/05 06:10:29;;;;;;;13.25;6.65;;;5.90;99.90;;;;;;5044253;28;20044;-79
2022/12/05 06:12:56;;;;;;;10.80;7.18;;;5.90;99.90;;;;;;5044912;28;20499;-82
2022/12/05 06:15:22;;;;;;;10.65;6.05;;;5.90;99.90;;;;;;5045275;28;20072;-78
2022/12/05 06:17:47;;;;;;;9.13;5.07;;;5.90;99.90;;;;;;5044890;28;20045;-77
2022/12/05 06:20:13;;;;;;;8.57;5.43;;;5.90;99.90;;;;;;5044385;28;20387;-82
2022/12/05 06:22:39;;;;;;;11.00;5.88;;;5.90;99.90;;;;;;5045676;28;20044;-78
2022/12/05 06:25:05;;;;;;;14.18;4.78;;;5.90;99.90;;;;;;5044275;28;20040;-77
2022/12/05 06:27:31;;;;;;;9.48;5.18;;;5.90;99.90;;;;;;5042867;28;20052;-77
2022/12/05 06:29:57;;;;;;;11.15;4.97;;;5.90;99.90;;;;;;5043125;28;20045;-81
2022/12/05 06:32:22;;;;;;;7.93;5.85;;;5.90;99.90;;;;;;5042280;28;20044;-78
2022/12/05 06:34:48;;;;;;;6.10;4.88;;;5.90;99.90;;;;;;5043446;28;20044;-74
2022/12/05 06:37:14;;;;;;;12.65;4.05;;;5.90;99.90;;;;;;5044206;28;20503;-76
2022/12/05 06:39:39;;;;;;;6.35;4.55;;;5.90;99.90;;;;;;5043094;28;20029;-74
2022/12/05 06:42:05;;;;;;;7.70;5.38;;;6.00;99.90;;;;;;5045968;28;20072;-74
2022/12/05 06:44:30;;;;;;;15.70;5.68;;;6.00;99.90;;;;;;5044747;28;20045;-74
2022/12/05 06:46:56;;;;;;;8.70;5.35;;;5.90;99.90;;;;;;5043128;28;20033;-74
2022/12/05 06:49:25;;;;;;;11.20;6.10;;;5.90;99.90;;;;;;5044244;28;20040;-74
2022/12/05 06:51:52;;;;;;;8.50;4.82;;;5.90;99.90;;;;;;5043045;28;20064;-75
2022/12/05 06:54:17;;;;;;;6.28;5.63;;;6.00;99.90;;;;;;5044488;28;20089;-75
2022/12/05 06:56:43;;;;;;;5.72;5.22;;;5.90;99.90;;;;;;5044224;28;20037;-75
2022/12/05 06:59:08;;;;;;;5.90;4.30;;;5.90;99.90;;;;;;5042497;28;20060;-75
2022/12/05 07:01:41;;;;;;;6.43;4.30;;;5.90;99.90;;;;;;5043476;28;20135;-74
2022/12/05 07:04:11;;;;;;;7.63;5.13;;;5.90;99.90;;;;;;5059373;28;20494;-74
2022/12/05 07:06:37;;;;;;;6.28;4.82;;;5.90;99.90;;;;;;5062261;28;20040;-74
2022/12/05 07:09:04;;;;;;;7.82;5.13;;;5.90;99.90;;;;;;5060205;28;20041;-75
2022/12/05 07:11:30;;;;;;;7.43;4.35;;;5.90;99.90;;;;;;5045202;28;20072;-75
2022/12/05 07:13:56;;;;;;;7.07;4.60;;;5.90;99.90;;;;;;5026820;28;20916;-75
2022/12/05 07:16:22;;;;;;;10.52;5.75;;;5.90;99.90;;;;;;5049481;28;20048;-75
2022/12/05 07:18:47;;;;;;;6.05;4.28;;;5.90;99.90;;;;;;5042195;28;20532;-75
2022/12/05 07:21:15;;;;;;;8.40;4.57;;;5.90;99.90;;;;;;5051077;28;20095;-75
2022/12/05 07:23:42;;;;;;;6.13;3.95;;;5.90;99.90;;;;;;5043889;28;20049;-75
2022/12/05 07:26:10;;;;;;;11.75;6.40;;;5.90;99.90;;;;;;5043772;28;20033;-74
2022/12/05 07:28:36;;;;;;;5.88;5.05;;;5.90;99.90;;;;;;5044510;28;20091;-74
2022/12/05 07:31:03;;;;;;;15.85;5.70;;;5.90;99.90;;;;;;5024861;28;20056;-75
2022/12/05 07:33:29;;;;;;;10.93;5.38;;;5.90;99.90;;;;;;5044256;28;20538;-74
2022/12/05 07:35:59;;;;;;;6.47;3.85;;;5.90;99.90;;;;;;5045659;28;20041;-75
2022/12/05 07:38:25;;;;;;;11.77;5.30;;;5.90;99.90;;;;;;5049018;28;20051;-75
2022/12/05 07:40:51;;;;;;;8.10;3.80;;;5.90;99.90;;;;;;5041964;28;20033;-75
2022/12/05 07:43:16;;;;;;;9.80;4.97;;;5.90;99.90;;;;;;5042041;28;20132;-74
2022/12/05 07:45:42;;;;;;;9.18;4.15;;;5.90;99.90;;;;;;5042906;28;20040;-74
2022/12/05 07:48:07;;;;;;;13.73;5.60;;;5.90;99.90;;;;;;5043318;28;20529;-74
2022/12/05 07:50:33;;;;;;;10.23;3.65;;;5.90;99.90;;;;;;5043820;28;20045;-74
2022/12/05 07:52:58;;;;;;;6.82;4.70;;;5.90;99.90;;;;;;5047226;28;20318;-75
2022/12/05 07:55:24;;;;;;;25.58;5.05;;;5.90;99.90;;;;;;5042791;28;20045;-75
2022/12/05 07:57:50;;;;;;;16.92;5.47;;;5.90;99.90;;;;;;5043702;28;20091;-75
2022/12/05 08:00:16;;;;;;;15.00;4.90;;;5.90;99.90;;;;;;5042665;28;20099;-75
2022/12/05 08:02:41;;;;;;;17.05;5.82;;;5.90;99.90;;;;;;5043191;28;20116;-74
2022/12/05 08:05:07;;;;;;;8.23;4.97;;;5.90;99.90;;;;;;5051471;28;20131;-75
2022/12/05 08:07:33;;;;;;;6.03;4.63;;;5.90;99.90;;;;;;5046574;28;20041;-75
2022/12/05 08:09:58;;;;;;;6.82;3.45;;;5.90;99.90;;;;;;5049819;28;20085;-74
2022/12/05 08:12:24;;;;;;;7.68;3.80;;;5.90;99.90;;;;;;5062240;28;20052;-75
2022/12/05 08:14:49;;;;;;;5.88;3.80;;;5.90;99.90;;;;;;5056445;28;20316;-75
2022/12/05 08:17:15;;;;;;;7.20;5.05;;;6.00;99.90;;;;;;5040861;28;20124;-75
2022/12/05 08:19:40;;;;;;;8.10;3.78;;;6.00;99.90;;;;;;5041974;28;20515;-75
2022/12/05 08:22:06;;;;;;;12.68;5.70;;;6.00;99.90;;;;;;5042988;28;20123;-75
2022/12/05 08:24:31;;;;;;;8.63;3.90;;;6.00;99.90;;;;;;5042867;28;20106;-75
2022/12/05 08:26:57;;;;;;;6.20;3.58;;;6.00;99.90;;;;;;5044529;28;20029;-75
2022/12/05 08:29:23;;;;;;;8.88;3.97;;;6.00;99.90;;;;;;5051984;28;20529;-76
2022/12/05 08:31:50;;;;;;;12.10;4.45;;;6.00;99.90;;;;;;5042527;28;20045;-75
2022/12/05 08:34:18;;;;;;;10.63;5.03;;;6.00;99.90;;;;;;5043572;28;20045;-77
2022/12/05 08:36:44;;;;;;;7.00;4.18;;;6.00;99.90;;;;;;5043384;28;20052;-75
2022/12/05 08:39:14;;;;;;;7.57;5.85;;;6.00;99.90;;;;;;5042538;28;20067;-76
2022/12/05 08:41:44;;;;;;;9.10;4.32;;;6.00;99.90;;;;;;5043081;28;20399;-76
2022/12/05 08:44:14;;;;;;;11.90;5.38;;;6.10;99.90;;;;;;5042341;28;20041;-75
2022/12/05 08:46:41;;;;;;;5.40;4.45;;;6.00;99.90;;;;;;5040946;28;20060;-75
2022/12/05 08:49:07;;;;;;;8.18;5.30;;;6.10;99.90;;;;;;5043737;28;20048;-76
2022/12/05 08:51:33;;;;;;;17.45;4.05;;;6.10;99.90;;;;;;5053936;28;20040;-76
2022/12/05 08:54:02;;;;;;;11.18;5.03;;;6.10;99.90;;;;;;5063047;28;20037;-75
2022/12/05 08:56:27;;;;;;;7.47;4.47;;;6.10;99.90;;;;;;5062552;28;20547;-75
2022/12/05 08:58:54;;;;;;;13.77;4.35;;;6.10;99.90;;;;;;5043502;28;20037;-76
2022/12/05 09:01:20;;;;;;;7.47;4.15;;;6.10;99.90;;;;;;5040862;28;20068;-77
2022/12/05 09:03:46;;;;;;;7.53;3.75;;;6.10;99.90;;;;;;5041550;28;20198;-75
2022/12/05 09:06:18;;;;;;;13.50;5.82;;;6.10;99.90;;;;;;5042316;28;20072;-76
2022/12/05 09:08:44;;;;;;;14.18;3.72;;;6.10;99.90;;;;;;5042662;28;20032;-77
2022/12/05 09:11:18;;;;;;;6.72;3.95;;;6.10;99.90;;;;;;5052369;28;20106;-76
2022/12/05 09:13:45;;;;;;;31.75;4.03;;;6.20;99.90;;;;;;5055478;28;20518;-76
2022/12/05 09:16:15;;;;;;;12.95;4.38;;;6.10;99.90;;;;;;5040555;28;20123;-77
2022/12/05 09:18:41;;;;;;;5.40;3.47;;;6.10;99.90;;;;;;5042352;28;20082;-77
2022/12/05 09:21:09;;;;;;;4.40;3.47;;;6.10;99.90;;;;;;5024937;28;20316;-76
2022/12/05 09:23:35;;;;;;;8.93;4.32;;;6.10;99.90;;;;;;5042896;28;20073;-75
2022/12/05 09:26:00;;;;;;;7.70;4.60;;;6.20;99.90;;;;;;5041527;28;20095;-76
2022/12/05 09:28:27;;;;;;;5.53;3.38;;;6.10;99.90;;;;;;5041989;28;20033;-73
2022/12/05 09:31:04;;;;;;;8.73;3.63;;;6.20;99.90;;;;;;5023284;28;20076;-76
2022/12/05 09:33:32;;;;;;;9.68;5.75;;;6.20;99.90;;;;;;5061901;28;20079;-76
2022/12/05 09:36:01;;;;;;;7.38;5.40;;;6.20;99.90;;;;;;5061964;28;20106;-74
2022/12/05 09:38:26;;;;;;;11.75;6.40;;;6.20;99.90;;;;;;5044864;28;20542;-75
2022/12/05 09:44:51;;;;;;;7.13;4.57;;;6.20;99.90;;;;;;5040602;28;20061;-76
2022/12/05 09:47:38;;;;;;;8.35;4.10;;;6.20;99.90;;;;;;5039617;28;20044;-75
2022/12/05 09:50:10;;;;;;;6.10;4.47;;;6.20;99.90;;;;;;5040919;28;20148;-74
2022/12/05 09:52:40;;;;;;;10.90;4.10;;;6.20;99.90;;;;;;5043708;28;20044;-73
2022/12/05 09:55:14;;;;;;;9.38;6.38;;;6.30;99.90;;;;;;5059329;28;20059;-75
2022/12/05 09:57:50;;;;;;;10.05;6.00;;;6.20;99.90;;;;;;5054154;28;20047;-74
2022/12/05 10:00:16;;;;;;;7.35;4.07;;;6.20;99.90;;;;;;5047164;28;20037;-74
2022/12/05 10:02:49;;;;;;;10.52;6.07;;;6.20;99.90;;;;;;5051145;28;20064;-76
2022/12/05 10:05:15;;;;;;;7.10;5.07;;;6.30;99.90;;;;;;5041731;28;20124;-75
2022/12/05 10:08:06;;;;;;;14.10;5.75;;;6.20;99.90;;;;;;5040248;28;20160;-75
2022/12/05 10:11:10;;;;;;;5.45;4.75;;;6.30;99.90;;;;;;5028543;28;20045;-74
2022/12/05 10:14:05;;;;;;;14.38;6.13;;;6.30;99.90;;;;;;5038667;28;20494;-76
2022/12/05 10:16:37;;;;;;;8.70;5.30;;;6.30;99.90;;;;;;5029320;28;20041;-74
2022/12/05 10:19:08;;;;;;;;;;;6.30;99.90;;;;;;5046170;28;20490;-73
2022/12/05 10:21:46;;;;;;;6.20;4.72;;;6.30;99.90;;;;;;5044100;28;19920;-73
2022/12/05 10:24:16;;;;;;;5.80;4.53;;;6.40;99.90;;;;;;5041414;28;20040;-74
2022/12/05 10:26:48;;;;;;;5.68;4.90;;;6.30;99.90;;;;;;5041747;28;20041;-75
2022/12/05 10:29:22;;;;;;;10.48;6.10;;;6.40;99.90;;;;;;5059195;28;20052;-75
2022/12/05 10:31:50;;;;;;;5.82;5.25;;;6.40;99.90;;;;;;5044017;28;20041;-75
2022/12/05 10:34:22;;;;;;;10.82;6.43;;;6.40;99.90;;;;;;5058172;28;20080;-75
2022/12/05 10:37:10;;;;;;;9.75;6.30;;;6.30;99.90;;;;;;5053784;28;20171;-75
2022/12/05 10:39:37;;;;;;;12.45;4.75;;;6.30;99.90;;;;;;5044160;28;20041;-75
2022/12/05 10:42:03;;;;;;;9.05;5.20;;;6.40;99.90;;;;;;5044650;28;20048;-75
2022/12/05 10:44:30;;;;;;;8.93;5.05;;;6.40;99.90;;;;;;5049636;28;20032;-75
2022/12/05 10:46:56;;;;;;;5.43;4.70;;;6.40;99.90;;;;;;5047224;28;20037;-74
2022/12/05 10:49:23;;;;;;;11.27;4.85;;;6.40;99.90;;;;;;5047435;28;20079;-75
2022/12/05 10:51:49;;;;;;;8.02;4.85;;;6.40;99.90;;;;;;5044170;28;20079;-73
2022/12/05 10:54:22;;;;;;;7.32;4.90;;;6.40;99.90;;;;;;5045588;28;20049;-76
2022/12/05 10:56:50;;;;;;;6.43;3.88;;;6.40;99.90;;;;;;5043531;28;20076;-75
2022/12/05 10:59:21;;;;;;;6.85;5.45;;;6.40;99.90;;;;;;5044363;28;20094;-75
2022/12/05 11:01:48;;;;;;;15.90;4.23;;;6.40;99.90;;;;;;5045667;28;20029;-74
2022/12/05 11:04:30;;;;;;;13.98;4.53;;;6.50;99.90;;;;;;5048738;28;20296;-76
2022/12/05 11:07:01;;;;;;;6.60;4.93;;;6.40;99.90;;;;;;5078318;28;20079;-76
2022/12/05 11:09:30;;;;;;;8.15;4.13;;;6.50;99.90;;;;;;5061169;28;20052;-75
2022/12/05 11:12:04;;;;;;;5.85;4.20;;;6.40;99.90;;;;;;5047397;28;20039;-73
2022/12/05 11:14:32;;;;;;;10.93;4.70;;;6.50;99.90;;;;;;5051433;28;20060;-74
2022/12/05 11:16:59;;;;;;;11.95;4.55;;;6.50;99.90;;;;;;5027901;28;20045;-76
2022/12/05 11:19:27;;;;;;;7.78;4.55;;;6.50;99.90;;;;;;5058202;28;20032;-76
2022/12/05 11:21:53;;;;;;;5.68;4.75;;;6.50;99.90;;;;;;5040822;28;20044;-73
2022/12/05 11:24:26;;;;;;;13.60;5.35;;;6.50;99.90;;;;;;5042515;28;20052;-77
2022/12/05 11:26:52;;;;;;;10.07;4.47;;;6.50;99.90;;;;;;5043528;28;20199;-76
2022/12/05 11:29:32;;;;;;;15.30;5.85;;;6.40;99.90;;;;;;5043805;28;20581;-73
2022/12/05 11:31:59;;;;;;;8.25;4.18;;;6.50;99.90;;;;;;5042262;28;20411;-75
2022/12/05 11:34:36;;;;;;;14.23;5.85;;;6.50;99.90;;;;;;5043678;28;20512;-74
2022/12/05 11:37:11;;;;;;;7.70;4.82;;;6.50;99.90;;;;;;5042067;28;20462;-74
2022/12/05 11:39:37;;;;;;;8.45;5.38;;;6.40;99.90;;;;;;5042917;28;20037;-75
2022/12/05 11:42:02;;;;;;;14.77;5.28;;;6.40;99.90;;;;;;5042124;28;20047;-75
2022/12/05 11:45:08;;;;;;;11.05;4.25;;;6.40;99.90;;;;;;5043394;28;20369;-73
2022/12/05 11:47:48;;;;;;;7.32;5.47;;;6.50;99.90;;;;;;5043465;28;20166;-76
2022/12/05 11:50:31;;;;;;;8.02;4.63;;;6.40;99.90;;;;;;5044346;28;20123;-76
2022/12/05 11:53:29;;;;;;;9.48;4.10;;;6.40;99.90;;;;;;5041225;28;20116;-76
2022/12/05 11:56:11;;;;;;;9.70;5.25;;;6.40;99.90;;;;;;5043689;28;20163;-76
2022/12/05 11:58:53;;;;;;;16.73;6.80;;;6.40;99.90;;;;;;5043671;28;20216;-73
2022/12/05 12:01:30;;;;;;;9.43;4.75;;;6.40;99.90;;;;;;5042218;28;20111;-74
2022/12/05 12:04:16;;;;;;;13.60;4.53;;;6.40;99.90;;;;;;5041917;28;20044;-75
2022/12/05 12:07:00;;;;;;;9.65;3.72;;;6.40;99.90;;;;;;5044696;28;20403;-77
2022/12/05 12:09:40;;;;;;;9.95;4.18;;;6.40;99.90;;;;;;5043077;28;20037;-74
2022/12/05 12:12:44;;;;;;;10.18;3.95;;;6.40;99.90;;;;;;5055689;28;20123;-77
2022/12/05 12:15:21;;;;;;;11.48;6.50;;;6.40;99.90;;;;;;5062150;28;20098;-77
2022/12/05 12:18:06;;;;;;;9.80;4.10;;;6.40;99.90;;;;;;5062631;28;20037;-78
2022/12/05 12:20:50;;;;;;;6.85;4.32;;;6.40;99.90;;;;;;5062508;28;20033;-74
2022/12/05 12:23:40;;;;;;;8.93;4.43;;;6.30;99.90;;;;;;5042270;28;20130;-73
2022/12/05 12:26:32;;;;;;;8.88;4.93;;;6.40;99.90;;;;;;5028494;28;20399;-78
2022/12/05 12:29:24;;;;;;;14.00;6.03;;;6.30;99.90;;;;;;5021266;28;20573;-76
2022/12/05 12:32:14;;;;;;;9.80;4.53;;;6.30;99.90;;;;;;5021887;28;20057;-76
2022/12/05 12:35:09;;;;;;;9.52;4.47;;;6.30;99.90;;;;;;5023084;28;20378;-73
2022/12/05 12:37:45;;;;;;;7.60;5.43;;;6.30;99.90;;;;;;5022626;28;20253;-75
2022/12/05 12:40:28;;;;;;;6.53;3.67;;;6.30;99.90;;;;;;5027181;28;20053;-77
2022/12/05 12:43:18;;;;;;;8.38;4.25;;;6.30;99.90;;;;;;5042611;28;20060;-76
2022/12/05 12:46:07;;;;;;;10.48;4.28;;;6.30;99.90;;;;;;5040529;28;20075;-77
2022/12/05 12:48:59;;;;;;;12.38;3.65;;;6.30;99.90;;;;;;5040833;28;20132;-72
2022/12/05 12:51:28;;;;;;;9.80;4.40;;;6.30;99.90;;;;;;5041683;28;20072;-76
2022/12/05 12:54:26;;;;;;;10.82;4.88;;;6.30;99.90;;;;;;5042116;28;20049;-73
2022/12/05 12:57:19;;;;;;;12.25;5.00;;;6.30;99.90;;;;;;5040480;28;20044;-76
2022/12/05 12:59:47;;;;;;;8.13;4.45;;;6.30;99.90;;;;;;5039751;28;20416;-75
2022/12/05 13:02:41;;;;;;;8.43;4.00;;;6.30;99.90;;;;;;5042064;28;20064;-77
2022/12/05 13:05:29;;;;;;;7.65;4.20;;;6.30;99.90;;;;;;5041367;28;20233;-75
2022/12/05 13:08:10;;;;;;;7.38;3.70;;;6.30;99.90;;;;;;5041672;28;20063;-74
2022/12/05 13:10:41;;;;;;;10.35;4.53;;;6.30;99.90;;;;;;5040359;28;20514;-77
2022/12/05 13:13:12;;;;;;;5.90;3.38;;;6.30;99.90;;;;;;5041394;28;20403;-75
2022/12/05 13:15:43;;;;;;;7.60;3.90;;;6.30;99.90;;;;;;5041396;28;20053;-76
2022/12/05 13:18:18;;;;;;;9.55;3.83;;;6.30;99.90;;;;;;5039982;28;20048;-76
2022/12/05 13:20:49;;;;;;;17.73;3.75;;;6.30;99.90;;;;;;5024142;28;20498;-77
2022/12/05 13:23:20;;;;;;;4.85;3.92;;;6.30;99.90;;;;;;5040654;28;20053;-77
2022/12/05 13:25:47;;;;;;;5.30;2.88;;;6.30;99.90;;;;;;5041184;28;20087;-78
2022/12/05 13:28:40;;;;;;;4.68;3.05;;;6.20;99.90;;;;;;5040830;28;20041;-77